sensor_id;sensor_type;location;lat;lon;timestamp;P1;durP1;ratioP1;P2;durP2;ratioP2
54923;SDS011;40825;52.270;20.984;2022-12-13T00:00:36;14.20;;;7.10;;
54923;SDS011;40825;52.270;20.984;2022-12-13T00:03:20;14.40;;;6.60;;
54923;SDS011;40825;52.270;20.984;2022-12-13T00:05:46;13.70;;;6.40;;
54923;SDS011;40825;52.270;20.984;2022-12-13T00:08:11;12.00;;;5.80;;
54923;SDS011;40825;52.270;20.984;2022-12-13T00:10:37;11.70;;;6.50;;
54923;SDS011;40825;52.270;20.984;2022-12-13T00:13:02;13.60;;;5.90;;
54923;SDS011;40825;52.270;20.984;2022-12-13T00:15:28;13.20;;;5.90;;
54923;SDS011;40825;52.270;20.984;2022-12-13T00:17:54;13.70;;;6.20;;
54923;SDS011;40825;52.270;20.984;2022-12-13T00:20:19;11.30;;;5.60;;
54923;SDS011;40825;52.270;20.984;2022-12-13T00:22:44;13.20;;;6.50;;
54923;SDS011;40825;52.270;20.984;2022-12-13T00:25:10;13.30;;;6.00;;
54923;SDS011;40825;52.270;20.984;2022-12-13T00:27:36;12.00;;;5.10;;
54923;SDS011;40825;52.270;20.984;2022-12-13T00:30:01;10.10;;;4.00;;
54923;SDS011;40825;52.270;20.984;2022-12-13T00:32:27;10.90;;;5.70;;
54923;SDS011;40825;52.270;20.984;2022-12-13T00:34:53;15.50;;;6.80;;
54923;SDS011;40825;52.270;20.984;2022-12-13T00:37:18;11.00;;;4.70;;
54923;SDS011;40825;52.270;20.984;2022-12-13T00:39:44;12.60;;;7.00;;
54923;SDS011;40825;52.270;20.984;2022-12-13T00:42:09;9.60;;;4.30;;
54923;SDS011;40825;52.270;20.984;2022-12-13T00:44:35;15.30;;;6.40;;
54923;SDS011;40825;52.270;20.984;2022-12-13T00:47:00;15.20;;;6.50;;
54923;SDS011;40825;52.270;20.984;2022-12-13T00:49:25;11.10;;;4.60;;
54923;SDS011;40825;52.270;20.984;2022-12-13T00:51:51;11.30;;;4.90;;
54923;SDS011;40825;52.270;20.984;2022-12-13T00:54:16;10.80;;;4.50;;
54923;SDS011;40825;52.270;20.984;2022-12-13T00:56:42;10.10;;;5.00;;
54923;SDS011;40825;52.270;20.984;2022-12-13T00:59:08;8.50;;;3.90;;
54923;SDS011;40825;52.270;20.984;2022-12-13T01:01:38;10.90;;;5.10;;
54923;SDS011;40825;52.270;20.984;2022-12-13T01:04:04;10.80;;;4.40;;
54923;SDS011;40825;52.270;20.984;2022-12-13T01:06:49;11.90;;;5.10;;
54923;SDS011;40825;52.270;20.984;2022-12-13T01:09:19;8.50;;;4.10;;
54923;SDS011;40825;52.270;20.984;2022-12-13T01:11:56;10.90;;;5.20;;
54923;SDS011;40825;52.270;20.984;2022-12-13T01:14:22;10.60;;;4.70;;
54923;SDS011;40825;52.270;20.984;2022-12-13T01:16:49;11.50;;;4.90;;
54923;SDS011;40825;52.270;20.984;2022-12-13T01:19:14;10.20;;;4.10;;
54923;SDS011;40825;52.270;20.984;2022-12-13T01:21:40;11.30;;;5.10;;
54923;SDS011;40825;52.270;20.984;2022-12-13T01:24:06;10.90;;;5.10;;
54923;SDS011;40825;52.270;20.984;2022-12-13T01:26:32;10.90;;;4.30;;
54923;SDS011;40825;52.270;20.984;2022-12-13T01:28:58;9.80;;;5.40;;
54923;SDS011;40825;52.270;20.984;2022-12-13T01:31:24;9.40;;;4.20;;
54923;SDS011;40825;52.270;20.984;2022-12-13T01:33:50;10.50;;;3.60;;
54923;SDS011;40825;52.270;20.984;2022-12-13T01:36:16;8.70;;;4.20;;
54923;SDS011;40825;52.270;20.984;2022-12-13T01:38:44;9.30;;;3.90;;
54923;SDS011;40825;52.270;20.984;2022-12-13T01:41:17;6.40;;;2.80;;
54923;SDS011;40825;52.270;20.984;2022-12-13T01:46:11;10.70;;;4.10;;
54923;SDS011;40825;52.270;20.984;2022-12-13T01:48:38;8.20;;;3.70;;
54923;SDS011;40825;52.270;20.984;2022-12-13T01:51:08;10.50;;;4.10;;
54923;SDS011;40825;52.270;20.984;2022-12-13T01:53:38;10.80;;;4.60;;
54923;SDS011;40825;52.270;20.984;2022-12-13T01:56:09;8.90;;;4.00;;
54923;SDS011;40825;52.270;20.984;2022-12-13T01:58:40;9.90;;;4.30;;
54923;SDS011;40825;52.270;20.984;2022-12-13T02:01:06;9.30;;;4.30;;
54923;SDS011;40825;52.270;20.984;2022-12-13T02:03:31;10.40;;;4.10;;
54923;SDS011;40825;52.270;20.984;2022-12-13T02:06:00;9.60;;;4.30;;
54923;SDS011;40825;52.270;20.984;2022-12-13T02:08:30;9.40;;;4.00;;
54923;SDS011;40825;52.270;20.984;2022-12-13T02:10:57;10.80;;;4.40;;
54923;SDS011;40825;52.270;20.984;2022-12-13T02:13:23;9.70;;;5.00;;
54923;SDS011;40825;52.270;20.984;2022-12-13T02:21:38;11.30;;;5.00;;
54923;SDS011;40825;52.270;20.984;2022-12-13T02:24:14;10.70;;;4.40;;
54923;SDS011;40825;52.270;20.984;2022-12-13T02:26:55;12.50;;;4.90;;
54923;SDS011;40825;52.270;20.984;2022-12-13T02:29:35;9.90;;;3.70;;
54923;SDS011;40825;52.270;20.984;2022-12-13T02:34:33;11.50;;;5.00;;
54923;SDS011;40825;52.270;20.984;2022-12-13T02:37:05;10.30;;;4.50;;
54923;SDS011;40825;52.270;20.984;2022-12-13T02:42:11;10.20;;;4.60;;
54923;SDS011;40825;52.270;20.984;2022-12-13T02:44:56;11.10;;;4.00;;
54923;SDS011;40825;52.270;20.984;2022-12-13T02:47:37;9.50;;;4.20;;
54923;SDS011;40825;52.270;20.984;2022-12-13T02:50:06;9.00;;;4.10;;
54923;SDS011;40825;52.270;20.984;2022-12-13T02:52:33;9.20;;;4.40;;
54923;SDS011;40825;52.270;20.984;2022-12-13T02:55:01;9.60;;;4.50;;
54923;SDS011;40825;52.270;20.984;2022-12-13T02:57:32;10.30;;;4.50;;
54923;SDS011;40825;52.270;20.984;2022-12-13T03:00:06;10.70;;;4.40;;
54923;SDS011;40825;52.270;20.984;2022-12-13T03:05:35;10.50;;;5.20;;
54923;SDS011;40825;52.270;20.984;2022-12-13T03:08:41;9.00;;;3.90;;
54923;SDS011;40825;52.270;20.984;2022-12-13T03:11:16;8.70;;;3.80;;
54923;SDS011;40825;52.270;20.984;2022-12-13T03:18:49;10.00;;;4.30;;
54923;SDS011;40825;52.270;20.984;2022-12-13T03:21:18;9.00;;;4.00;;
54923;SDS011;40825;52.270;20.984;2022-12-13T03:23:44;11.60;;;4.60;;
54923;SDS011;40825;52.270;20.984;2022-12-13T03:26:15;9.30;;;4.20;;
54923;SDS011;40825;52.270;20.984;2022-12-13T03:28:44;9.10;;;4.70;;
54923;SDS011;40825;52.270;20.984;2022-12-13T03:31:10;10.00;;;4.80;;
54923;SDS011;40825;52.270;20.984;2022-12-13T03:33:35;11.50;;;4.80;;
54923;SDS011;40825;52.270;20.984;2022-12-13T03:36:03;10.10;;;4.40;;
54923;SDS011;40825;52.270;20.984;2022-12-13T03:38:29;9.80;;;5.20;;
54923;SDS011;40825;52.270;20.984;2022-12-13T03:41:02;9.90;;;5.30;;
54923;SDS011;40825;52.270;20.984;2022-12-13T03:45:56;9.80;;;4.80;;
54923;SDS011;40825;52.270;20.984;2022-12-13T03:48:22;11.60;;;5.20;;
54923;SDS011;40825;52.270;20.984;2022-12-13T03:50:49;11.40;;;4.90;;
54923;SDS011;40825;52.270;20.984;2022-12-13T03:53:16;10.90;;;4.80;;
54923;SDS011;40825;52.270;20.984;2022-12-13T03:55:41;11.00;;;4.90;;
54923;SDS011;40825;52.270;20.984;2022-12-13T03:58:07;11.00;;;4.90;;
54923;SDS011;40825;52.270;20.984;2022-12-13T04:00:32;11.20;;;4.90;;
54923;SDS011;40825;52.270;20.984;2022-12-13T04:02:57;10.40;;;5.30;;
54923;SDS011;40825;52.270;20.984;2022-12-13T04:05:23;13.30;;;6.50;;
54923;SDS011;40825;52.270;20.984;2022-12-13T04:07:48;9.50;;;5.10;;
54923;SDS011;40825;52.270;20.984;2022-12-13T04:10:14;11.30;;;5.30;;
54923;SDS011;40825;52.270;20.984;2022-12-13T04:12:39;11.90;;;5.60;;
54923;SDS011;40825;52.270;20.984;2022-12-13T04:15:24;11.70;;;6.70;;
54923;SDS011;40825;52.270;20.984;2022-12-13T04:17:49;16.10;;;7.20;;
54923;SDS011;40825;52.270;20.984;2022-12-13T04:20:15;12.30;;;5.20;;
54923;SDS011;40825;52.270;20.984;2022-12-13T04:22:41;11.30;;;6.10;;
54923;SDS011;40825;52.270;20.984;2022-12-13T04:25:06;13.10;;;6.50;;
54923;SDS011;40825;52.270;20.984;2022-12-13T04:27:32;12.20;;;6.00;;
54923;SDS011;40825;52.270;20.984;2022-12-13T04:29:57;17.80;;;7.60;;
54923;SDS011;40825;52.270;20.984;2022-12-13T04:32:23;10.60;;;5.40;;
54923;SDS011;40825;52.270;20.984;2022-12-13T04:34:49;12.50;;;6.00;;
54923;SDS011;40825;52.270;20.984;2022-12-13T04:37:14;12.60;;;6.60;;
54923;SDS011;40825;52.270;20.984;2022-12-13T04:39:40;15.70;;;7.70;;
54923;SDS011;40825;52.270;20.984;2022-12-13T04:42:05;14.10;;;7.40;;
54923;SDS011;40825;52.270;20.984;2022-12-13T04:44:32;13.10;;;6.70;;
54923;SDS011;40825;52.270;20.984;2022-12-13T04:46:57;15.70;;;7.20;;
54923;SDS011;40825;52.270;20.984;2022-12-13T04:49:23;12.30;;;6.90;;
54923;SDS011;40825;52.270;20.984;2022-12-13T04:51:48;14.60;;;6.30;;
54923;SDS011;40825;52.270;20.984;2022-12-13T04:54:14;12.10;;;5.90;;
54923;SDS011;40825;52.270;20.984;2022-12-13T04:56:39;16.20;;;7.50;;
54923;SDS011;40825;52.270;20.984;2022-12-13T04:59:05;14.70;;;7.10;;
54923;SDS011;40825;52.270;20.984;2022-12-13T05:01:30;11.20;;;5.40;;
54923;SDS011;40825;52.270;20.984;2022-12-13T05:03:55;11.80;;;6.00;;
54923;SDS011;40825;52.270;20.984;2022-12-13T05:06:21;13.60;;;6.70;;
54923;SDS011;40825;52.270;20.984;2022-12-13T05:08:46;13.70;;;7.10;;
54923;SDS011;40825;52.270;20.984;2022-12-13T05:11:12;13.50;;;6.00;;
54923;SDS011;40825;52.270;20.984;2022-12-13T05:13:38;13.10;;;6.30;;
54923;SDS011;40825;52.270;20.984;2022-12-13T05:16:04;13.10;;;5.70;;
54923;SDS011;40825;52.270;20.984;2022-12-13T05:18:31;11.20;;;5.10;;
54923;SDS011;40825;52.270;20.984;2022-12-13T05:21:02;11.80;;;5.10;;
54923;SDS011;40825;52.270;20.984;2022-12-13T05:23:28;12.60;;;5.90;;
54923;SDS011;40825;52.270;20.984;2022-12-13T05:25:54;12.00;;;5.60;;
54923;SDS011;40825;52.270;20.984;2022-12-13T05:28:19;14.00;;;7.20;;
54923;SDS011;40825;52.270;20.984;2022-12-13T05:30:45;11.90;;;6.10;;
54923;SDS011;40825;52.270;20.984;2022-12-13T05:33:10;13.70;;;7.00;;
54923;SDS011;40825;52.270;20.984;2022-12-13T05:35:36;12.10;;;5.80;;
54923;SDS011;40825;52.270;20.984;2022-12-13T05:38:02;12.30;;;6.00;;
54923;SDS011;40825;52.270;20.984;2022-12-13T05:40:28;13.20;;;6.50;;
54923;SDS011;40825;52.270;20.984;2022-12-13T05:42:56;15.70;;;7.30;;
54923;SDS011;40825;52.270;20.984;2022-12-13T05:45:21;14.30;;;6.70;;
54923;SDS011;40825;52.270;20.984;2022-12-13T05:47:47;14.50;;;6.50;;
54923;SDS011;40825;52.270;20.984;2022-12-13T05:50:13;13.90;;;6.80;;
54923;SDS011;40825;52.270;20.984;2022-12-13T05:52:40;12.30;;;5.10;;
54923;SDS011;40825;52.270;20.984;2022-12-13T05:55:06;12.10;;;5.40;;
54923;SDS011;40825;52.270;20.984;2022-12-13T05:57:32;13.00;;;6.40;;
54923;SDS011;40825;52.270;20.984;2022-12-13T05:59:58;14.00;;;6.50;;
54923;SDS011;40825;52.270;20.984;2022-12-13T06:02:23;13.70;;;6.00;;
54923;SDS011;40825;52.270;20.984;2022-12-13T06:04:49;13.10;;;5.60;;
54923;SDS011;40825;52.270;20.984;2022-12-13T06:07:14;10.30;;;4.50;;
54923;SDS011;40825;52.270;20.984;2022-12-13T06:09:40;10.90;;;5.20;;
54923;SDS011;40825;52.270;20.984;2022-12-13T06:12:06;11.50;;;6.10;;
54923;SDS011;40825;52.270;20.984;2022-12-13T06:14:34;14.60;;;6.80;;
54923;SDS011;40825;52.270;20.984;2022-12-13T06:16:59;14.80;;;6.50;;
54923;SDS011;40825;52.270;20.984;2022-12-13T06:19:25;13.40;;;5.60;;
54923;SDS011;40825;52.270;20.984;2022-12-13T06:21:51;12.00;;;6.20;;
54923;SDS011;40825;52.270;20.984;2022-12-13T06:24:19;12.00;;;5.80;;
54923;SDS011;40825;52.270;20.984;2022-12-13T06:26:47;14.50;;;5.80;;
54923;SDS011;40825;52.270;20.984;2022-12-13T06:29:14;14.90;;;7.00;;
54923;SDS011;40825;52.270;20.984;2022-12-13T06:31:40;11.10;;;5.30;;
54923;SDS011;40825;52.270;20.984;2022-12-13T06:34:05;10.90;;;4.50;;
54923;SDS011;40825;52.270;20.984;2022-12-13T06:36:31;15.30;;;7.50;;
54923;SDS011;40825;52.270;20.984;2022-12-13T06:39:00;11.40;;;4.40;;
54923;SDS011;40825;52.270;20.984;2022-12-13T06:41:27;11.80;;;5.20;;
54923;SDS011;40825;52.270;20.984;2022-12-13T06:43:53;10.40;;;4.40;;
54923;SDS011;40825;52.270;20.984;2022-12-13T06:46:19;14.00;;;5.90;;
54923;SDS011;40825;52.270;20.984;2022-12-13T06:48:44;11.70;;;5.60;;
54923;SDS011;40825;52.270;20.984;2022-12-13T06:51:10;12.30;;;5.60;;
54923;SDS011;40825;52.270;20.984;2022-12-13T06:53:36;9.60;;;4.10;;
54923;SDS011;40825;52.270;20.984;2022-12-13T06:56:04;14.60;;;5.60;;
54923;SDS011;40825;52.270;20.984;2022-12-13T06:58:32;13.10;;;5.50;;
54923;SDS011;40825;52.270;20.984;2022-12-13T07:01:02;13.80;;;5.60;;
54923;SDS011;40825;52.270;20.984;2022-12-13T07:03:32;10.40;;;5.60;;
54923;SDS011;40825;52.270;20.984;2022-12-13T07:05:59;11.10;;;6.10;;
54923;SDS011;40825;52.270;20.984;2022-12-13T07:08:27;13.10;;;6.10;;
54923;SDS011;40825;52.270;20.984;2022-12-13T07:10:53;10.00;;;5.10;;
54923;SDS011;40825;52.270;20.984;2022-12-13T07:13:19;10.10;;;4.70;;
54923;SDS011;40825;52.270;20.984;2022-12-13T07:15:46;11.40;;;5.40;;
54923;SDS011;40825;52.270;20.984;2022-12-13T07:18:12;9.30;;;4.90;;
54923;SDS011;40825;52.270;20.984;2022-12-13T07:20:38;9.70;;;4.90;;
54923;SDS011;40825;52.270;20.984;2022-12-13T07:23:05;9.90;;;4.60;;
54923;SDS011;40825;52.270;20.984;2022-12-13T07:25:30;12.30;;;5.10;;
54923;SDS011;40825;52.270;20.984;2022-12-13T07:27:57;11.60;;;5.20;;
54923;SDS011;40825;52.270;20.984;2022-12-13T07:30:27;10.50;;;5.20;;
54923;SDS011;40825;52.270;20.984;2022-12-13T07:32:52;10.70;;;4.70;;
54923;SDS011;40825;52.270;20.984;2022-12-13T07:35:18;9.40;;;4.80;;
54923;SDS011;40825;52.270;20.984;2022-12-13T07:37:43;10.30;;;5.10;;
54923;SDS011;40825;52.270;20.984;2022-12-13T07:40:09;10.90;;;5.50;;
54923;SDS011;40825;52.270;20.984;2022-12-13T07:42:35;11.10;;;5.40;;
54923;SDS011;40825;52.270;20.984;2022-12-13T07:45:00;9.30;;;4.70;;
54923;SDS011;40825;52.270;20.984;2022-12-13T07:47:29;12.40;;;5.50;;
54923;SDS011;40825;52.270;20.984;2022-12-13T07:49:56;9.70;;;4.90;;
54923;SDS011;40825;52.270;20.984;2022-12-13T07:52:22;10.30;;;5.20;;
54923;SDS011;40825;52.270;20.984;2022-12-13T07:54:47;8.70;;;4.60;;
54923;SDS011;40825;52.270;20.984;2022-12-13T07:57:13;11.30;;;5.40;;
54923;SDS011;40825;52.270;20.984;2022-12-13T07:59:39;9.30;;;4.80;;
54923;SDS011;40825;52.270;20.984;2022-12-13T08:02:13;10.50;;;4.80;;
54923;SDS011;40825;52.270;20.984;2022-12-13T08:04:40;9.20;;;4.20;;
54923;SDS011;40825;52.270;20.984;2022-12-13T08:07:06;12.00;;;5.00;;
54923;SDS011;40825;52.270;20.984;2022-12-13T08:09:35;10.40;;;4.50;;
54923;SDS011;40825;52.270;20.984;2022-12-13T08:12:02;12.90;;;5.80;;
54923;SDS011;40825;52.270;20.984;2022-12-13T08:14:28;10.60;;;5.10;;
54923;SDS011;40825;52.270;20.984;2022-12-13T08:16:53;10.20;;;5.40;;
54923;SDS011;40825;52.270;20.984;2022-12-13T08:19:19;10.20;;;5.10;;
54923;SDS011;40825;52.270;20.984;2022-12-13T08:21:44;10.60;;;4.90;;
54923;SDS011;40825;52.270;20.984;2022-12-13T08:24:10;10.50;;;5.50;;
54923;SDS011;40825;52.270;20.984;2022-12-13T08:26:35;12.90;;;6.50;;
54923;SDS011;40825;52.270;20.984;2022-12-13T08:29:01;11.10;;;5.70;;
54923;SDS011;40825;52.270;20.984;2022-12-13T08:31:28;10.80;;;5.60;;
54923;SDS011;40825;52.270;20.984;2022-12-13T08:33:53;11.80;;;5.80;;
54923;SDS011;40825;52.270;20.984;2022-12-13T08:36:19;12.40;;;7.00;;
54923;SDS011;40825;52.270;20.984;2022-12-13T08:38:48;12.00;;;6.40;;
54923;SDS011;40825;52.270;20.984;2022-12-13T08:41:17;10.50;;;5.30;;
54923;SDS011;40825;52.270;20.984;2022-12-13T08:43:42;10.00;;;5.50;;
54923;SDS011;40825;52.270;20.984;2022-12-13T08:46:08;12.40;;;6.00;;
54923;SDS011;40825;52.270;20.984;2022-12-13T08:48:33;10.00;;;5.40;;
54923;SDS011;40825;52.270;20.984;2022-12-13T08:51:05;9.80;;;4.80;;
54923;SDS011;40825;52.270;20.984;2022-12-13T08:53:33;10.70;;;5.90;;
54923;SDS011;40825;52.270;20.984;2022-12-13T08:56:00;10.30;;;5.40;;
54923;SDS011;40825;52.270;20.984;2022-12-13T08:58:26;12.10;;;5.90;;
54923;SDS011;40825;52.270;20.984;2022-12-13T09:00:51;9.10;;;5.00;;
54923;SDS011;40825;52.270;20.984;2022-12-13T09:03:17;11.30;;;5.90;;
54923;SDS011;40825;52.270;20.984;2022-12-13T09:05:42;11.90;;;4.90;;
54923;SDS011;40825;52.270;20.984;2022-12-13T09:08:08;11.30;;;5.10;;
54923;SDS011;40825;52.270;20.984;2022-12-13T09:10:34;9.10;;;4.90;;
54923;SDS011;40825;52.270;20.984;2022-12-13T09:12:59;12.00;;;5.50;;
54923;SDS011;40825;52.270;20.984;2022-12-13T09:15:26;11.00;;;5.30;;
54923;SDS011;40825;52.270;20.984;2022-12-13T09:17:53;12.00;;;6.10;;
54923;SDS011;40825;52.270;20.984;2022-12-13T09:20:19;10.90;;;5.30;;
54923;SDS011;40825;52.270;20.984;2022-12-13T09:22:45;8.90;;;4.70;;
54923;SDS011;40825;52.270;20.984;2022-12-13T09:25:10;14.40;;;6.60;;
54923;SDS011;40825;52.270;20.984;2022-12-13T09:27:36;11.30;;;5.70;;
54923;SDS011;40825;52.270;20.984;2022-12-13T09:30:02;10.00;;;5.00;;
54923;SDS011;40825;52.270;20.984;2022-12-13T09:32:29;11.60;;;5.50;;
54923;SDS011;40825;52.270;20.984;2022-12-13T09:34:55;12.50;;;6.00;;
54923;SDS011;40825;52.270;20.984;2022-12-13T09:37:20;10.40;;;4.20;;
54923;SDS011;40825;52.270;20.984;2022-12-13T09:39:46;10.60;;;5.50;;
54923;SDS011;40825;52.270;20.984;2022-12-13T09:42:24;9.00;;;4.70;;
54923;SDS011;40825;52.270;20.984;2022-12-13T09:44:54;11.30;;;5.60;;
54923;SDS011;40825;52.270;20.984;2022-12-13T09:49:55;8.40;;;4.60;;
54923;SDS011;40825;52.270;20.984;2022-12-13T09:52:23;10.20;;;5.10;;
54923;SDS011;40825;52.270;20.984;2022-12-13T09:54:54;9.80;;;5.00;;
54923;SDS011;40825;52.270;20.984;2022-12-13T09:57:22;12.00;;;4.90;;
54923;SDS011;40825;52.270;20.984;2022-12-13T09:59:50;11.50;;;7.20;;
54923;SDS011;40825;52.270;20.984;2022-12-13T10:02:16;9.00;;;4.90;;
54923;SDS011;40825;52.270;20.984;2022-12-13T10:04:48;9.80;;;4.60;;
54923;SDS011;40825;52.270;20.984;2022-12-13T10:07:16;9.60;;;4.80;;
54923;SDS011;40825;52.270;20.984;2022-12-13T10:09:44;11.10;;;5.50;;
54923;SDS011;40825;52.270;20.984;2022-12-13T10:12:11;9.70;;;5.50;;
54923;SDS011;40825;52.270;20.984;2022-12-13T10:14:42;10.90;;;5.70;;
54923;SDS011;40825;52.270;20.984;2022-12-13T10:17:14;9.50;;;5.90;;
54923;SDS011;40825;52.270;20.984;2022-12-13T10:19:44;8.90;;;4.20;;
54923;SDS011;40825;52.270;20.984;2022-12-13T10:22:15;9.70;;;5.00;;
54923;SDS011;40825;52.270;20.984;2022-12-13T10:24:48;11.00;;;5.70;;
54923;SDS011;40825;52.270;20.984;2022-12-13T10:27:17;10.50;;;5.80;;
54923;SDS011;40825;52.270;20.984;2022-12-13T10:29:55;12.40;;;5.70;;
54923;SDS011;40825;52.270;20.984;2022-12-13T10:32:20;11.20;;;5.50;;
54923;SDS011;40825;52.270;20.984;2022-12-13T10:34:46;10.40;;;5.80;;
54923;SDS011;40825;52.270;20.984;2022-12-13T10:39:49;10.50;;;6.30;;
54923;SDS011;40825;52.270;20.984;2022-12-13T10:42:16;10.80;;;5.70;;
54923;SDS011;40825;52.270;20.984;2022-12-13T10:44:45;10.30;;;5.30;;
54923;SDS011;40825;52.270;20.984;2022-12-13T10:52:24;12.10;;;5.00;;
54923;SDS011;40825;52.270;20.984;2022-12-13T10:54:57;11.80;;;5.60;;
54923;SDS011;40825;52.270;20.984;2022-12-13T10:57:27;9.70;;;5.20;;
54923;SDS011;40825;52.270;20.984;2022-12-13T10:59:53;9.70;;;5.00;;
54923;SDS011;40825;52.270;20.984;2022-12-13T11:02:29;12.20;;;6.10;;
54923;SDS011;40825;52.270;20.984;2022-12-13T11:05:01;12.20;;;6.40;;
54923;SDS011;40825;52.270;20.984;2022-12-13T11:07:46;10.90;;;5.90;;
54923;SDS011;40825;52.270;20.984;2022-12-13T11:10:16;11.00;;;5.70;;
54923;SDS011;40825;52.270;20.984;2022-12-13T11:12:45;11.20;;;5.50;;
54923;SDS011;40825;52.270;20.984;2022-12-13T11:15:15;12.90;;;6.20;;
54923;SDS011;40825;52.270;20.984;2022-12-13T11:17:50;11.60;;;6.00;;
54923;SDS011;40825;52.270;20.984;2022-12-13T11:20:20;12.90;;;6.60;;
54923;SDS011;40825;52.270;20.984;2022-12-13T11:22:48;9.70;;;6.00;;
54923;SDS011;40825;52.270;20.984;2022-12-13T11:25:36;12.10;;;5.80;;
54923;SDS011;40825;52.270;20.984;2022-12-13T11:36:24;9.20;;;4.90;;
54923;SDS011;40825;52.270;20.984;2022-12-13T11:38:55;11.80;;;5.50;;
54923;SDS011;40825;52.270;20.984;2022-12-13T11:41:33;11.00;;;5.20;;
54923;SDS011;40825;52.270;20.984;2022-12-13T11:46:53;12.00;;;5.30;;
54923;SDS011;40825;52.270;20.984;2022-12-13T11:54:53;8.90;;;4.70;;
54923;SDS011;40825;52.270;20.984;2022-12-13T12:00:38;12.40;;;6.30;;
54923;SDS011;40825;52.270;20.984;2022-12-13T12:03:20;10.20;;;5.20;;
54923;SDS011;40825;52.270;20.984;2022-12-13T12:05:54;11.40;;;5.00;;
54923;SDS011;40825;52.270;20.984;2022-12-13T12:08:27;12.20;;;6.10;;
54923;SDS011;40825;52.270;20.984;2022-12-13T12:14:17;11.50;;;5.80;;
54923;SDS011;40825;52.270;20.984;2022-12-13T12:16:51;12.20;;;5.70;;
54923;SDS011;40825;52.270;20.984;2022-12-13T12:19:26;8.30;;;4.10;;
54923;SDS011;40825;52.270;20.984;2022-12-13T12:22:05;13.50;;;6.50;;
54923;SDS011;40825;52.270;20.984;2022-12-13T12:30:05;12.70;;;5.50;;
54923;SDS011;40825;52.270;20.984;2022-12-13T12:35:20;9.20;;;4.80;;
54923;SDS011;40825;52.270;20.984;2022-12-13T12:37:51;9.30;;;4.20;;
54923;SDS011;40825;52.270;20.984;2022-12-13T12:40:30;9.90;;;5.00;;
54923;SDS011;40825;52.270;20.984;2022-12-13T12:43:19;13.30;;;5.60;;
54923;SDS011;40825;52.270;20.984;2022-12-13T12:45:58;10.50;;;5.60;;
54923;SDS011;40825;52.270;20.984;2022-12-13T12:57:21;11.50;;;7.00;;
54923;SDS011;40825;52.270;20.984;2022-12-13T13:07:52;13.60;;;5.90;;
54923;SDS011;40825;52.270;20.984;2022-12-13T13:10:24;12.00;;;5.80;;
54923;SDS011;40825;52.270;20.984;2022-12-13T13:12:51;11.30;;;5.60;;
54923;SDS011;40825;52.270;20.984;2022-12-13T13:17:55;13.10;;;6.00;;
54923;SDS011;40825;52.270;20.984;2022-12-13T13:20:22;11.20;;;4.90;;
54923;SDS011;40825;52.270;20.984;2022-12-13T13:22:49;11.90;;;5.40;;
54923;SDS011;40825;52.270;20.984;2022-12-13T13:25:23;12.60;;;5.70;;
54923;SDS011;40825;52.270;20.984;2022-12-13T13:28:14;15.30;;;7.90;;
54923;SDS011;40825;52.270;20.984;2022-12-13T13:31:14;10.80;;;5.30;;
54923;SDS011;40825;52.270;20.984;2022-12-13T13:33:47;16.50;;;7.10;;
54923;SDS011;40825;52.270;20.984;2022-12-13T13:55:34;13.40;;;6.40;;
54923;SDS011;40825;52.270;20.984;2022-12-13T13:58:45;13.70;;;6.40;;
54923;SDS011;40825;52.270;20.984;2022-12-13T14:07:15;13.30;;;6.00;;
54923;SDS011;40825;52.270;20.984;2022-12-13T14:31:44;12.80;;;6.20;;
54923;SDS011;40825;52.270;20.984;2022-12-13T14:34:24;13.00;;;5.40;;
54923;SDS011;40825;52.270;20.984;2022-12-13T14:39:22;13.50;;;5.90;;
54923;SDS011;40825;52.270;20.984;2022-12-13T14:41:50;11.20;;;5.70;;
54923;SDS011;40825;52.270;20.984;2022-12-13T14:44:22;16.80;;;7.60;;
54923;SDS011;40825;52.270;20.984;2022-12-13T14:46:50;13.60;;;5.80;;
54923;SDS011;40825;52.270;20.984;2022-12-13T14:49:24;15.00;;;5.80;;
54923;SDS011;40825;52.270;20.984;2022-12-13T14:51:53;14.60;;;6.90;;
54923;SDS011;40825;52.270;20.984;2022-12-13T14:54:26;16.90;;;7.10;;
54923;SDS011;40825;52.270;20.984;2022-12-13T14:56:57;17.90;;;7.80;;
54923;SDS011;40825;52.270;20.984;2022-12-13T15:01:55;13.00;;;7.10;;
54923;SDS011;40825;52.270;20.984;2022-12-13T15:06:59;16.40;;;6.90;;
54923;SDS011;40825;52.270;20.984;2022-12-13T15:09:49;13.40;;;6.90;;
54923;SDS011;40825;52.270;20.984;2022-12-13T15:12:21;15.90;;;7.40;;
54923;SDS011;40825;52.270;20.984;2022-12-13T15:14:48;17.30;;;7.10;;
54923;SDS011;40825;52.270;20.984;2022-12-13T15:17:23;14.60;;;6.60;;
54923;SDS011;40825;52.270;20.984;2022-12-13T15:19:57;16.60;;;7.10;;
54923;SDS011;40825;52.270;20.984;2022-12-13T15:22:23;17.60;;;7.20;;
54923;SDS011;40825;52.270;20.984;2022-12-13T15:24:49;13.70;;;6.90;;
54923;SDS011;40825;52.270;20.984;2022-12-13T15:27:16;13.80;;;6.70;;
54923;SDS011;40825;52.270;20.984;2022-12-13T15:29:44;18.40;;;7.60;;
54923;SDS011;40825;52.270;20.984;2022-12-13T15:32:12;15.00;;;7.20;;
54923;SDS011;40825;52.270;20.984;2022-12-13T15:34:43;11.80;;;5.60;;
54923;SDS011;40825;52.270;20.984;2022-12-13T15:39:38;15.30;;;6.90;;
54923;SDS011;40825;52.270;20.984;2022-12-13T15:42:05;17.70;;;7.50;;
54923;SDS011;40825;52.270;20.984;2022-12-13T15:44:43;17.50;;;7.60;;
54923;SDS011;40825;52.270;20.984;2022-12-13T15:47:13;15.90;;;8.20;;
54923;SDS011;40825;52.270;20.984;2022-12-13T15:49:48;16.40;;;8.00;;
54923;SDS011;40825;52.270;20.984;2022-12-13T15:54:58;15.00;;;7.50;;
54923;SDS011;40825;52.270;20.984;2022-12-13T15:57:27;17.30;;;8.00;;
54923;SDS011;40825;52.270;20.984;2022-12-13T16:02:47;18.20;;;8.30;;
54923;SDS011;40825;52.270;20.984;2022-12-13T16:05:35;20.00;;;9.00;;
54923;SDS011;40825;52.270;20.984;2022-12-13T16:08:03;19.10;;;7.90;;
54923;SDS011;40825;52.270;20.984;2022-12-13T16:10:49;16.80;;;7.80;;
54923;SDS011;40825;52.270;20.984;2022-12-13T16:13:27;15.90;;;8.10;;
54923;SDS011;40825;52.270;20.984;2022-12-13T16:15:55;18.00;;;8.00;;
54923;SDS011;40825;52.270;20.984;2022-12-13T16:18:40;17.40;;;8.50;;
54923;SDS011;40825;52.270;20.984;2022-12-13T16:21:10;18.00;;;8.30;;
54923;SDS011;40825;52.270;20.984;2022-12-13T16:23:36;17.80;;;7.70;;
54923;SDS011;40825;52.270;20.984;2022-12-13T16:26:02;18.40;;;8.70;;
54923;SDS011;40825;52.270;20.984;2022-12-13T16:28:27;15.00;;;7.00;;
54923;SDS011;40825;52.270;20.984;2022-12-13T16:33:24;19.00;;;8.30;;
54923;SDS011;40825;52.270;20.984;2022-12-13T16:35:50;17.10;;;8.40;;
54923;SDS011;40825;52.270;20.984;2022-12-13T16:38:17;15.10;;;6.60;;
54923;SDS011;40825;52.270;20.984;2022-12-13T16:40:43;16.70;;;7.70;;
54923;SDS011;40825;52.270;20.984;2022-12-13T16:43:17;18.50;;;7.50;;
54923;SDS011;40825;52.270;20.984;2022-12-13T16:45:46;19.20;;;7.90;;
54923;SDS011;40825;52.270;20.984;2022-12-13T16:48:15;19.20;;;7.60;;
54923;SDS011;40825;52.270;20.984;2022-12-13T16:50:46;13.40;;;6.90;;
54923;SDS011;40825;52.270;20.984;2022-12-13T16:53:14;14.40;;;6.70;;
54923;SDS011;40825;52.270;20.984;2022-12-13T16:55:40;14.20;;;6.50;;
54923;SDS011;40825;52.270;20.984;2022-12-13T16:58:06;16.50;;;9.50;;
54923;SDS011;40825;52.270;20.984;2022-12-13T17:00:36;12.90;;;6.00;;
54923;SDS011;40825;52.270;20.984;2022-12-13T17:03:03;17.60;;;9.30;;